• Join FlightAware (Why Join?)
  • Login
  • US Flag 
07:44AM EDT


 

Airport Tracker/Info


-or-


 

Live Flight TrackerFlight Track Log ✈ UCA597 ✈ 30-Oct-2013 ✈ KIAD - KBGM

Flight Track Log - Related Links

Times and Time Zones

All times are in EDT time to prevent confusion due to time zone crossing. See the UCA597 flight status page for this flight to view local times or setup timezone preferences in your user account.

Time Position Orientation Groundspeed Altitude Reporting Facility
EDT Latitude Longitude Course Direction KTS MPH feet Rate Location/Type
07:18PM 38.9667 -77.5333 North 177 204 2,400  Level Potomac TRACON
07:19PM 39.0167 -77.5667 333° Northwest 183 211 4,100 1,620 Climbing Potomac TRACON
07:20PM 39.0667 -77.5667 360° North 180 207 5,700 1,560 Climbing Potomac TRACON
07:21PM 39.1167 -77.5667 360° North 183 211 7,200 1,440 Climbing Potomac TRACON
07:22PM 39.1667 -77.5667 360° North 187 215 8,700 1,260 Climbing Potomac TRACON
07:23PM 39.2395 -77.3334 North  Level Estimated
07:23PM 39.2167 -77.5667 360° North 199 229 9,900  Level Potomac TRACON
07:24PM 39.2667 -77.5667 360° North 205 236 10,900 360 Climbing Potomac TRACON
07:26PM 39.3850 -77.5653 North 242 278 11,000  Climbing Washington Center
07:27PM 39.4578 -77.5672 359° North 249 287 11,000 900 Level Washington Center
07:28PM 39.5689 -77.5044 24° Northeast 253 291 13,500 1,440 Climbing New York Center
07:29PM 39.6233 -77.4636 30° Northeast 234 269 15,000 1,380 Climbing New York Center
07:30PM 39.6700 -77.4519 11° North 197 227 16,300 1,200 Climbing New York Center
07:31PM 39.7306 -77.4497 North 190 219 17,500 1,020 Climbing New York Center
07:32PM 39.7808 -77.4464 North 190 219 18,400 720 Climbing New York Center
07:33PM 39.8408 -77.4142 22° Northeast 201 231 19,000 300 Climbing New York Center
07:34PM 39.8969 -77.3842 22° Northeast 226 260 19,000  Level New York Center
07:35PM 39.9722 -77.3428 23° Northeast 256 295 19,000  Level New York Center
07:36PM 40.0342 -77.3133 20° North 261 300 19,000  Level New York Center
07:37PM 40.1117 -77.2717 22° Northeast 261 300 19,000  Level New York Center
07:38PM 40.1719 -77.2364 24° Northeast 261 300 19,000  Level New York Center
07:39PM 40.2469 -77.2000 20° North 261 300 19,000  Level New York Center
07:40PM 40.3069 -77.1675 22° Northeast 261 300 19,000  Level New York Center
07:41PM 40.3800 -77.1278 22° Northeast 261 300 19,000  Level New York Center
07:42PM 40.4403 -77.0925 24° Northeast 261 300 19,000  Level New York Center
07:43PM 40.5153 -77.0528 22° Northeast 256 295 19,000  Level New York Center
07:44PM 40.5756 -77.0203 22° Northeast 256 295 19,000 -300 Level New York Center
07:45PM 40.6506 -76.9806 22° Northeast 256 295 18,500 -660 Descending New York Center
07:46PM 40.7172 -76.9428 23° Northeast 270 311 17,800 -780 Descending New York Center
07:47PM 40.8008 -76.8981 22° Northeast 284 327 17,000 -420 Descending New York Center
07:48PM 40.8628 -76.8653 22° Northeast 277 319 17,000  Level New York Center
07:49PM 40.9400 -76.8228 23° Northeast 272 313 17,000  Level New York Center
07:50PM 41.0003 -76.7867 24° Northeast 272 313 17,000  Level New York Center
07:51PM 41.0686 -76.7517 21° North 267 307 17,000  Level New York Center
07:52PM 41.1394 -76.7136 22° Northeast 262 302 17,000  Level New York Center
07:53PM 41.2081 -76.6728 24° Northeast 262 302 17,000  Level New York Center
07:54PM 41.2744 -76.6344 23° Northeast 262 302 17,000  Level New York Center
07:55PM 41.3494 -76.5939 22° Northeast 262 302 17,000  Level New York Center
07:56PM 41.4181 -76.5558 23° Northeast 262 302 17,000  Level New York Center
07:57PM 41.4864 -76.5172 23° Northeast 262 302 17,000 -300 Level New York Center
07:58PM 41.5486 -76.4839 22° Northeast 262 302 16,500 -900 Descending New York Center
07:59PM 41.6281 -76.4350 25° Northeast 268 308 15,300 -1,320 Descending New York Center
08:00PM 41.6928 -76.3822 31° Northeast 268 308 13,900 -1,440 Descending New York Center
08:01PM 41.7600 -76.3294 30° Northeast 273 314 12,500 -1,500 Descending New York Center
08:02PM 41.8203 -76.2872 28° Northeast 273 314 11,000 -1,500 Descending New York Center
08:03PM 41.8831 -76.2367 31° Northeast 267 307 9,500 -1,560 Descending New York Center
08:04PM 41.9522 -76.1811 31° Northeast 261 300 7,900 -1,620 Descending New York Center
08:05PM 42.0125 -76.1356 29° Northeast 256 295 6,400 -1,500 Descending New York Center
08:06PM 42.0731 -76.0875 30° Northeast 256 295 5,000 -900 Descending New York Center
08:07PM 42.1303 -76.0614 19° North 243 280 4,600 -600 Descending New York Center
08:08PM 42.1794 -76.0767 347° North 198 228 3,900 -660 Descending New York Center
08:09PM 42.2203 -76.0994 338° Northwest 174 200 3,400 -420 Descending New York Center
08:10PM 42.2589 -76.0717 28° Northeast 135 155 3,100 -480 Descending New York Center
08:11PM 42.2528 -76.0208 99° East 105 121 2,500 -600 Descending New York Center
08:13PM 42.2084 -75.9796 North  Level Estimated
08:20PM 42.2084 -75.9796 North  Level Estimated
08:21PM 42.2084 -75.9796 North  Level Estimated
08:22PM 42.2084 -75.9796 North  Level Estimated
08:23PM 42.2084 -75.9796 North  Level Estimated